createdAt,value
2016-07-03T00:00:46.264Z,0
2016-07-03T00:01:45.660Z,0
2016-07-03T00:02:45.631Z,0
2016-07-03T00:03:45.616Z,0
2016-07-03T00:04:45.592Z,0
2016-07-03T00:05:45.569Z,0
2016-07-03T00:06:45.572Z,0
2016-07-03T00:07:45.522Z,0
2016-07-03T00:08:45.495Z,0
2016-07-03T00:09:45.471Z,0
2016-07-03T00:10:45.455Z,0
2016-07-03T00:11:45.425Z,0
2016-07-03T00:12:45.411Z,0
2016-07-03T00:13:45.395Z,0
2016-07-03T00:14:45.361Z,0
2016-07-03T00:15:45.336Z,0
2016-07-03T00:16:45.307Z,0
2016-07-03T00:17:45.297Z,0
2016-07-03T00:18:45.268Z,0
2016-07-03T00:19:45.244Z,0
2016-07-03T00:20:45.233Z,0
2016-07-03T00:21:45.208Z,0
2016-07-03T00:22:45.190Z,0
2016-07-03T00:23:45.159Z,0
2016-07-03T00:24:45.131Z,0
2016-07-03T00:25:45.094Z,0
2016-07-03T00:26:45.067Z,0
2016-07-03T00:27:45.039Z,0
2016-07-03T00:28:45.028Z,0
2016-07-03T00:29:45.010Z,0
2016-07-03T00:30:45.594Z,0
2016-07-03T00:31:44.967Z,0
2016-07-03T00:32:44.942Z,0
2016-07-03T00:33:44.937Z,0
2016-07-03T00:34:44.899Z,0
2016-07-03T00:35:44.880Z,0
2016-07-03T00:36:44.856Z,0
2016-07-03T00:37:44.845Z,0
2016-07-03T00:38:44.809Z,0
2016-07-03T00:39:44.794Z,0
2016-07-03T00:40:45.367Z,0
2016-07-03T00:41:44.733Z,0
2016-07-03T00:42:44.723Z,0
2016-07-03T00:43:44.700Z,0
2016-07-03T00:44:44.680Z,0
2016-07-03T00:45:44.655Z,0
2016-07-03T00:46:44.634Z,0
2016-07-03T00:47:44.605Z,0
2016-07-03T00:48:44.581Z,0
2016-07-03T00:49:44.558Z,0
2016-07-03T00:50:44.544Z,0
2016-07-03T00:51:44.520Z,0
2016-07-03T00:52:44.499Z,0
2016-07-03T00:53:44.466Z,0
2016-07-03T00:54:44.433Z,0
2016-07-03T00:55:44.428Z,0
2016-07-03T00:56:44.451Z,0
2016-07-03T00:57:44.373Z,0
2016-07-03T00:58:44.357Z,0
2016-07-03T00:59:44.336Z,0
2016-07-03T01:00:44.302Z,0
2016-07-03T01:01:44.294Z,0
2016-07-03T01:02:44.266Z,0
2016-07-03T01:03:44.235Z,0
2016-07-03T01:04:44.218Z,0
2016-07-03T01:05:44.201Z,0
2016-07-03T01:06:44.185Z,0
2016-07-03T01:07:44.150Z,0
2016-07-03T01:08:44.135Z,0
2016-07-03T01:09:44.098Z,0
2016-07-03T01:10:44.686Z,0
2016-07-03T01:11:44.040Z,0
2016-07-03T01:12:44.020Z,0
2016-07-03T01:13:43.990Z,0
2016-07-03T01:14:43.970Z,0
2016-07-03T01:15:43.943Z,0
2016-07-03T01:16:43.935Z,0
2016-07-03T01:17:43.900Z,0
2016-07-03T01:18:44.494Z,0
2016-07-03T01:19:43.873Z,0
2016-07-03T01:20:43.835Z,0
2016-07-03T01:21:43.839Z,0
2016-07-03T01:22:43.803Z,0
2016-07-03T01:23:43.780Z,0
2016-07-03T01:24:43.754Z,0
2016-07-03T01:25:43.724Z,0
2016-07-03T01:26:43.700Z,0
2016-07-03T01:27:43.679Z,0
2016-07-03T01:28:43.640Z,0
2016-07-03T01:29:43.639Z,0
2016-07-03T01:30:43.603Z,0
2016-07-03T01:31:43.593Z,0
2016-07-03T01:32:43.566Z,0
2016-07-03T01:33:43.547Z,0
2016-07-03T01:34:43.510Z,0
2016-07-03T01:35:43.490Z,0
2016-07-03T01:36:43.466Z,0
2016-07-03T01:37:43.443Z,0
2016-07-03T01:38:43.433Z,0
2016-07-03T01:39:43.384Z,0
2016-07-03T01:40:43.375Z,0
2016-07-03T01:41:43.356Z,0
2016-07-03T01:42:43.339Z,0
2016-07-03T01:43:43.910Z,0
2016-07-03T01:44:43.283Z,0
2016-07-03T01:45:43.261Z,0
2016-07-03T01:46:43.243Z,0
2016-07-03T01:47:43.230Z,0
2016-07-03T01:48:43.200Z,0
2016-07-03T01:49:43.160Z,0
2016-07-03T01:50:43.136Z,0
2016-07-03T01:51:43.124Z,0
2016-07-03T01:52:43.093Z,0
2016-07-03T01:53:43.070Z,0
2016-07-03T01:54:43.046Z,0
2016-07-03T01:55:43.022Z,0
2016-07-03T01:56:42.995Z,0
2016-07-03T01:57:42.977Z,0
2016-07-03T01:58:42.950Z,0
2016-07-03T01:59:42.929Z,0
2016-07-03T02:00:42.916Z,0
2016-07-03T02:01:42.895Z,0
2016-07-03T02:02:42.874Z,0
2016-07-03T02:03:42.852Z,0
2016-07-03T02:04:43.434Z,0
2016-07-03T02:05:42.805Z,0
2016-07-03T02:06:42.786Z,0
2016-07-03T02:07:42.751Z,0
2016-07-03T02:08:42.727Z,0
2016-07-03T02:09:43.565Z,0
2016-07-03T02:10:42.700Z,0
2016-07-03T02:11:42.666Z,0
2016-07-03T02:12:42.654Z,0
2016-07-03T02:13:42.620Z,0
2016-07-03T02:14:42.606Z,0
2016-07-03T02:15:42.574Z,0
2016-07-03T02:16:42.542Z,0
2016-07-03T02:17:42.520Z,0
2016-07-03T02:18:42.520Z,0
2016-07-03T02:19:42.471Z,0
2016-07-03T02:20:42.450Z,0
2016-07-03T02:21:42.419Z,0
2016-07-03T02:22:42.397Z,0
2016-07-03T02:23:42.378Z,0
2016-07-03T02:24:42.360Z,0
2016-07-03T02:25:42.341Z,0
2016-07-03T02:26:42.316Z,0
2016-07-03T02:27:42.294Z,0
2016-07-03T02:28:42.273Z,0
2016-07-03T02:29:42.246Z,0
2016-07-03T02:30:42.220Z,0
2016-07-03T02:31:42.199Z,0
2016-07-03T02:32:42.168Z,0
2016-07-03T02:33:42.154Z,0
2016-07-03T02:34:42.118Z,0
2016-07-03T02:35:42.099Z,0
2016-07-03T02:36:42.081Z,0
2016-07-03T02:37:42.053Z,0
2016-07-03T02:38:42.039Z,0
2016-07-03T02:39:42.012Z,0
2016-07-03T02:40:42.674Z,0
2016-07-03T02:41:41.968Z,0
2016-07-03T02:42:41.943Z,0
2016-07-03T02:43:41.926Z,0
2016-07-03T02:44:41.894Z,0
2016-07-03T02:45:41.874Z,0
2016-07-03T02:46:41.853Z,0
2016-07-03T02:47:41.833Z,0
2016-07-03T02:48:41.806Z,0
2016-07-03T02:49:41.781Z,0
2016-07-03T02:50:41.760Z,0
2016-07-03T02:51:41.735Z,0
2016-07-03T02:52:41.713Z,0
2016-07-03T02:53:41.691Z,0
2016-07-03T02:54:41.665Z,0
2016-07-03T02:55:41.645Z,0
2016-07-03T02:56:41.671Z,0
2016-07-03T02:57:41.587Z,0
2016-07-03T02:58:41.563Z,0
2016-07-03T02:59:41.543Z,5
2016-07-03T03:00:41.524Z,5
2016-07-03T03:01:41.503Z,5
2016-07-03T03:02:41.479Z,5
2016-07-03T03:03:41.444Z,5
2016-07-03T03:04:41.421Z,10
2016-07-03T03:05:41.396Z,10
2016-07-03T03:06:41.366Z,10
2016-07-03T03:07:41.342Z,10
2016-07-03T03:08:41.332Z,15
2016-07-03T03:09:41.315Z,15
2016-07-03T03:10:41.284Z,15
2016-07-03T03:11:41.257Z,15
2016-07-03T03:12:41.236Z,20
2016-07-03T03:13:41.229Z,20
2016-07-03T03:14:41.192Z,20
2016-07-03T03:15:41.172Z,20
2016-07-03T03:16:41.132Z,20
2016-07-03T03:17:41.120Z,25
2016-07-03T03:18:41.093Z,25
2016-07-03T03:19:41.067Z,30
2016-07-03T03:20:41.044Z,30
2016-07-03T03:21:41.026Z,35
2016-07-03T03:22:41.007Z,35
2016-07-03T03:23:40.983Z,35
2016-07-03T03:24:40.963Z,40
2016-07-03T03:25:40.932Z,40
2016-07-03T03:26:40.911Z,45
2016-07-03T03:27:40.873Z,45
2016-07-03T03:28:40.870Z,50
2016-07-03T03:29:40.843Z,50
2016-07-03T03:30:40.823Z,50
2016-07-03T03:31:40.789Z,55
2016-07-03T03:32:40.777Z,55
2016-07-03T03:33:40.763Z,60
2016-07-03T03:34:40.729Z,65
2016-07-03T03:35:40.696Z,65
2016-07-03T03:36:40.667Z,65
2016-07-03T03:37:40.642Z,70
2016-07-03T03:38:40.607Z,70
2016-07-03T03:39:40.596Z,75
2016-07-03T03:40:40.569Z,80
2016-07-03T03:41:40.541Z,85
2016-07-03T03:42:40.520Z,85
2016-07-03T03:43:40.492Z,90
2016-07-03T03:44:40.474Z,95
2016-07-03T03:45:40.462Z,100
2016-07-03T03:46:40.445Z,100
2016-07-03T03:47:40.429Z,105
2016-07-03T03:48:40.402Z,110
2016-07-03T03:49:40.388Z,110
2016-07-03T03:50:40.353Z,115
2016-07-03T03:51:40.328Z,115
2016-07-03T03:52:40.308Z,120
2016-07-03T03:53:40.279Z,120
2016-07-03T03:54:40.253Z,125
2016-07-03T03:55:40.231Z,130
2016-07-03T03:56:40.217Z,130
2016-07-03T03:57:40.196Z,135
2016-07-03T03:58:40.174Z,135
2016-07-03T03:59:40.148Z,135
2016-07-03T04:00:40.124Z,140
2016-07-03T04:01:40.100Z,140
2016-07-03T04:02:40.069Z,140
2016-07-03T04:03:40.046Z,145
2016-07-03T04:04:40.025Z,145
2016-07-03T04:05:40.001Z,145
2016-07-03T04:06:39.992Z,145
2016-07-03T04:07:39.971Z,150
2016-07-03T04:08:39.923Z,150
2016-07-03T04:09:39.922Z,150
2016-07-03T04:10:39.896Z,155
2016-07-03T04:11:39.866Z,155
2016-07-03T04:12:39.850Z,160
2016-07-03T04:13:39.819Z,160
2016-07-03T04:14:39.795Z,160
2016-07-03T04:15:39.778Z,165
2016-07-03T04:16:39.745Z,165
2016-07-03T04:17:39.726Z,170
2016-07-03T04:18:39.699Z,175
2016-07-03T04:19:39.682Z,175
2016-07-03T04:20:39.657Z,175
2016-07-03T04:21:39.645Z,175
2016-07-03T04:22:39.606Z,175
2016-07-03T04:23:39.602Z,180
2016-07-03T04:24:39.565Z,180
2016-07-03T04:25:39.541Z,185
2016-07-03T04:26:39.513Z,195
2016-07-03T04:27:39.500Z,200
2016-07-03T04:28:39.480Z,200
2016-07-03T04:29:39.468Z,210
2016-07-03T04:30:39.421Z,220
2016-07-03T04:31:39.422Z,225
2016-07-03T04:32:39.389Z,220
2016-07-03T04:33:39.372Z,225
2016-07-03T04:34:39.348Z,230
2016-07-03T04:35:39.326Z,240
2016-07-03T04:36:39.302Z,260
2016-07-03T04:37:39.281Z,260
2016-07-03T04:38:39.251Z,260
2016-07-03T04:39:39.233Z,255
2016-07-03T04:40:39.208Z,270
2016-07-03T04:41:39.193Z,280
2016-07-03T04:42:39.167Z,275
2016-07-03T04:43:39.140Z,280
2016-07-03T04:44:39.127Z,275
2016-07-03T04:45:39.105Z,280
2016-07-03T04:46:39.072Z,270
2016-07-03T04:47:39.060Z,275
2016-07-03T04:48:39.038Z,285
2016-07-03T04:49:39.611Z,315
2016-07-03T04:50:38.997Z,325
2016-07-03T04:51:38.977Z,345
2016-07-03T04:52:38.952Z,370
2016-07-03T04:53:38.932Z,400
2016-07-03T04:54:38.908Z,405
2016-07-03T04:55:38.886Z,415
2016-07-03T04:56:38.872Z,425
2016-07-03T04:57:38.835Z,450
2016-07-03T04:58:38.815Z,495
2016-07-03T04:59:38.804Z,510
2016-07-03T05:00:38.777Z,525
2016-07-03T05:01:38.756Z,500
2016-07-03T05:02:38.728Z,485
2016-07-03T05:03:39.322Z,460
2016-07-03T05:04:38.698Z,445
2016-07-03T05:05:38.670Z,415
2016-07-03T05:06:38.647Z,385
2016-07-03T05:07:38.632Z,380
2016-07-03T05:08:38.599Z,355
2016-07-03T05:09:38.582Z,350
2016-07-03T05:10:38.553Z,355
2016-07-03T05:11:38.539Z,390
2016-07-03T05:12:38.512Z,415
2016-07-03T05:13:38.502Z,395
2016-07-03T05:14:39.068Z,425
2016-07-03T05:15:38.447Z,440
2016-07-03T05:16:38.422Z,475
2016-07-03T05:17:38.433Z,480
2016-07-03T05:18:38.377Z,445
2016-07-03T05:19:38.372Z,475
2016-07-03T05:20:38.357Z,490
2016-07-03T05:21:38.335Z,455
2016-07-03T05:22:38.307Z,455
2016-07-03T05:23:38.297Z,425
2016-07-03T05:24:38.875Z,460
2016-07-03T05:25:38.262Z,435
2016-07-03T05:26:38.237Z,435
2016-07-03T05:27:38.222Z,435
2016-07-03T05:28:38.196Z,445
2016-07-03T05:29:38.779Z,455
2016-07-03T05:30:38.160Z,435
2016-07-03T05:31:38.162Z,395
2016-07-03T05:32:38.713Z,350
2016-07-03T05:33:38.102Z,300
2016-07-03T05:34:38.073Z,270
2016-07-03T05:35:38.061Z,255
2016-07-03T05:36:38.632Z,265
2016-07-03T05:37:38.017Z,290
2016-07-03T05:38:37.993Z,330
2016-07-03T05:39:37.972Z,345
2016-07-03T05:40:37.947Z,350
2016-07-03T05:41:37.941Z,345
2016-07-03T05:42:37.916Z,330
2016-07-03T05:43:37.898Z,330
2016-07-03T05:44:37.875Z,325
2016-07-03T05:45:37.860Z,320
2016-07-03T05:46:37.836Z,320
2016-07-03T05:47:37.817Z,335
2016-07-03T05:48:37.800Z,350
2016-07-03T05:49:37.782Z,375
2016-07-03T05:50:37.752Z,365
2016-07-03T05:51:37.732Z,365
2016-07-03T05:52:37.713Z,380
2016-07-03T05:53:37.703Z,380
2016-07-03T05:54:37.670Z,385
2016-07-03T05:55:37.651Z,395
2016-07-03T05:56:37.633Z,395
2016-07-03T05:57:37.625Z,410
2016-07-03T05:58:37.597Z,415
2016-07-03T05:59:37.576Z,430
2016-07-03T06:00:37.558Z,435
2016-07-03T06:01:37.537Z,440
2016-07-03T06:02:37.515Z,440
2016-07-03T06:03:38.103Z,450
2016-07-03T06:04:37.475Z,435
2016-07-03T06:05:37.458Z,440
2016-07-03T06:06:37.436Z,475
2016-07-03T06:07:37.415Z,475
2016-07-03T06:08:37.394Z,440
2016-07-03T06:09:37.374Z,435
2016-07-03T06:10:37.355Z,435
2016-07-03T06:11:37.334Z,445
2016-07-03T06:12:37.313Z,445
2016-07-03T06:13:37.301Z,440
2016-07-03T06:14:37.274Z,440
2016-07-03T06:15:37.261Z,465
2016-07-03T06:16:37.238Z,475
2016-07-03T06:17:37.216Z,475
2016-07-03T06:18:37.193Z,475
2016-07-03T06:19:37.172Z,485
2016-07-03T06:20:37.811Z,525
2016-07-03T06:21:37.139Z,555
2016-07-03T06:22:37.124Z,560
2016-07-03T06:23:37.115Z,560
2016-07-03T06:24:37.075Z,520
2016-07-03T06:25:37.059Z,545
2016-07-03T06:26:37.033Z,575
2016-07-03T06:27:37.020Z,575
2016-07-03T06:28:37.002Z,565
2016-07-03T06:29:36.983Z,520
2016-07-03T06:30:36.967Z,525
2016-07-03T06:31:36.945Z,555
2016-07-03T06:32:36.933Z,520
2016-07-03T06:33:36.912Z,485
2016-07-03T06:34:36.870Z,450
2016-07-03T06:35:36.862Z,485
2016-07-03T06:36:36.840Z,425
2016-07-03T06:37:36.827Z,435
2016-07-03T06:38:36.811Z,440
2016-07-03T06:39:36.779Z,405
2016-07-03T06:40:37.372Z,405
2016-07-03T06:41:37.343Z,445
2016-07-03T06:42:36.730Z,430
2016-07-03T06:43:36.698Z,410
2016-07-03T06:44:36.690Z,440
2016-07-03T06:45:36.669Z,455
2016-07-03T06:46:36.644Z,440
2016-07-03T06:47:36.631Z,395
2016-07-03T06:48:36.613Z,440
2016-07-03T06:49:36.588Z,505
2016-07-03T06:50:36.568Z,520
2016-07-03T06:51:36.546Z,530
2016-07-03T06:52:36.538Z,585
2016-07-03T06:53:36.513Z,620
2016-07-03T06:54:36.500Z,605
2016-07-03T06:55:36.481Z,650
2016-07-03T06:56:36.457Z,715
2016-07-03T06:57:36.448Z,740
2016-07-03T06:58:36.430Z,695
2016-07-03T06:59:36.401Z,665
2016-07-03T07:00:36.387Z,620
2016-07-03T07:01:36.367Z,585
2016-07-03T07:02:36.339Z,585
2016-07-03T07:03:36.325Z,570
2016-07-03T07:04:36.306Z,520
2016-07-03T07:05:36.278Z,550
2016-07-03T07:06:36.269Z,575
2016-07-03T07:07:36.255Z,550
2016-07-03T07:08:36.223Z,540
2016-07-03T07:09:36.207Z,555
2016-07-03T07:10:36.190Z,510
2016-07-03T07:11:36.171Z,470
2016-07-03T07:12:36.151Z,460
2016-07-03T07:13:36.139Z,510
2016-07-03T07:14:36.125Z,535
2016-07-03T07:15:36.094Z,535
2016-07-03T07:16:36.684Z,545
2016-07-03T07:17:36.057Z,565
2016-07-03T07:18:36.035Z,555
2016-07-03T07:19:36.618Z,545
2016-07-03T07:20:36.013Z,545
2016-07-03T07:21:35.979Z,525
2016-07-03T07:22:35.967Z,590
2016-07-03T07:23:35.944Z,600
2016-07-03T07:24:35.932Z,580
2016-07-03T07:25:35.902Z,605
2016-07-03T07:26:35.890Z,625
2016-07-03T07:27:35.872Z,625
2016-07-03T07:28:35.860Z,640
2016-07-03T07:29:35.822Z,640
2016-07-03T07:30:35.815Z,635
2016-07-03T07:31:35.787Z,710
2016-07-03T07:32:35.770Z,765
2016-07-03T07:33:35.743Z,755
2016-07-03T07:34:35.742Z,745
2016-07-03T07:35:35.722Z,795
2016-07-03T07:36:35.703Z,860
2016-07-03T07:37:36.288Z,935
2016-07-03T07:38:35.659Z,925
2016-07-03T07:39:35.646Z,995
2016-07-03T07:40:35.630Z,1030
2016-07-03T07:41:35.614Z,975
2016-07-03T07:42:35.595Z,960
2016-07-03T07:43:35.579Z,965
2016-07-03T07:44:35.564Z,960
2016-07-03T07:45:35.554Z,970
2016-07-03T07:46:35.523Z,995
2016-07-03T07:47:35.516Z,1040
2016-07-03T07:48:35.508Z,1055
2016-07-03T07:49:35.478Z,975
2016-07-03T07:50:35.464Z,980
2016-07-03T07:51:35.441Z,1000
2016-07-03T07:52:35.428Z,1080
2016-07-03T07:53:35.409Z,1155
2016-07-03T07:54:35.390Z,1185
2016-07-03T07:55:35.369Z,1180
2016-07-03T07:56:35.351Z,1225
2016-07-03T07:57:35.934Z,1150
2016-07-03T07:58:35.322Z,1120
2016-07-03T07:59:35.309Z,1150
2016-07-03T08:00:35.303Z,1200
2016-07-03T08:01:35.265Z,1235
2016-07-03T08:02:35.262Z,1200
2016-07-03T08:03:35.235Z,1175
2016-07-03T08:04:35.225Z,1260
2016-07-03T08:05:35.310Z,1260
2016-07-03T08:06:35.192Z,1215
2016-07-03T08:07:35.167Z,1270
2016-07-03T08:08:35.157Z,2115
2016-07-03T08:09:35.126Z,1415
2016-07-03T08:10:35.121Z,1150
2016-07-03T08:11:35.111Z,1000
2016-07-03T08:12:35.094Z,805
2016-07-03T08:13:35.075Z,830
2016-07-03T08:14:35.061Z,2625
2016-07-03T08:15:35.046Z,2585
2016-07-03T08:16:35.038Z,2550
2016-07-03T08:17:35.017Z,2510
2016-07-03T08:18:35.013Z,2500
2016-07-03T08:19:34.991Z,2580
2016-07-03T08:20:34.970Z,2615
2016-07-03T08:21:34.974Z,2610
2016-07-03T08:22:34.953Z,2580
2016-07-03T08:23:35.543Z,2550
2016-07-03T08:24:34.915Z,2575
2016-07-03T08:25:34.902Z,2720
2016-07-03T08:26:34.898Z,2690
2016-07-03T08:27:35.481Z,2780
2016-07-03T08:28:34.871Z,2785
2016-07-03T08:29:34.852Z,2450
2016-07-03T08:30:34.842Z,2725
2016-07-03T08:31:34.842Z,1540
2016-07-03T08:32:34.831Z,2690
2016-07-03T08:33:34.820Z,2455
2016-07-03T08:34:34.805Z,2235
2016-07-03T08:35:34.801Z,965
2016-07-03T08:36:34.787Z,1140
2016-07-03T08:37:34.775Z,2875
2016-07-03T08:38:34.762Z,2780
2016-07-03T08:39:34.753Z,2690
2016-07-03T08:40:34.735Z,2645
2016-07-03T08:41:34.731Z,2725
2016-07-03T08:42:34.711Z,2875
2016-07-03T08:43:34.702Z,2660
2016-07-03T08:44:34.689Z,2585
2016-07-03T08:45:34.676Z,2595
2016-07-03T08:46:34.668Z,2565
2016-07-03T08:47:34.657Z,2645
2016-07-03T08:48:34.643Z,2670
2016-07-03T08:49:35.236Z,2665
2016-07-03T08:50:34.633Z,2705
2016-07-03T08:51:34.624Z,2735
2016-07-03T08:52:34.607Z,2755
2016-07-03T08:53:34.608Z,2825
2016-07-03T08:54:34.593Z,2805
2016-07-03T08:55:34.583Z,2805
2016-07-03T08:56:34.574Z,2785
2016-07-03T08:57:35.158Z,2760
2016-07-03T08:58:35.129Z,2790
2016-07-03T08:59:35.138Z,2800
2016-07-03T09:00:34.528Z,920
2016-07-03T09:01:34.527Z,3090
2016-07-03T09:02:34.713Z,2655
2016-07-03T09:03:34.559Z,1065
2016-07-03T09:04:34.489Z,2065
2016-07-03T09:05:34.497Z,3055
2016-07-03T09:06:34.488Z,3270
2016-07-03T09:07:34.468Z,1430
2016-07-03T09:08:35.075Z,720
2016-07-03T09:09:34.468Z,2845
2016-07-03T09:10:34.449Z,990
2016-07-03T09:11:34.446Z,925
2016-07-03T09:12:34.432Z,1420
2016-07-03T09:13:34.428Z,3165
2016-07-03T09:14:34.414Z,2820
2016-07-03T09:15:34.400Z,2780
2016-07-03T09:16:34.386Z,3020
2016-07-03T09:17:34.381Z,3090
2016-07-03T09:18:34.380Z,3035
2016-07-03T09:19:34.369Z,2860
2016-07-03T09:20:34.358Z,2920
2016-07-03T09:21:34.358Z,3035
2016-07-03T09:22:34.327Z,2950
2016-07-03T09:23:34.325Z,1385
2016-07-03T09:24:34.312Z,3170
2016-07-03T09:25:34.306Z,1590
2016-07-03T09:26:34.297Z,3120
2016-07-03T09:27:34.299Z,830
2016-07-03T09:28:34.275Z,940
2016-07-03T09:29:34.271Z,3180
2016-07-03T09:30:34.270Z,3120
2016-07-03T09:31:34.262Z,3090
2016-07-03T09:32:34.989Z,3045
2016-07-03T09:33:34.842Z,3135
2016-07-03T09:34:34.229Z,3240
2016-07-03T09:35:34.221Z,3220
2016-07-03T09:36:34.217Z,3140
2016-07-03T09:37:34.217Z,3060
2016-07-03T09:38:34.208Z,3045
2016-07-03T09:39:34.206Z,3125
2016-07-03T09:40:34.205Z,3200
2016-07-03T09:41:34.194Z,3295
2016-07-03T09:42:34.189Z,3525
2016-07-03T09:43:34.180Z,1100
2016-07-03T09:44:34.170Z,915
2016-07-03T09:45:34.166Z,3380
2016-07-03T09:46:34.158Z,955
2016-07-03T09:47:34.158Z,955
2016-07-03T09:48:34.142Z,3240
2016-07-03T09:49:34.124Z,3015
2016-07-03T09:50:34.120Z,2950
2016-07-03T09:51:34.115Z,2890
2016-07-03T09:52:34.100Z,3030
2016-07-03T09:53:34.093Z,3100
2016-07-03T09:54:34.084Z,3080
2016-07-03T09:55:34.090Z,3190
2016-07-03T09:56:34.074Z,840
2016-07-03T09:57:34.069Z,1025
2016-07-03T09:58:34.055Z,1245
2016-07-03T09:59:34.045Z,1335
2016-07-03T10:00:34.057Z,2440
2016-07-03T10:01:34.040Z,3925
2016-07-03T10:02:34.027Z,1480
2016-07-03T10:03:34.026Z,1465
2016-07-03T10:04:34.012Z,3610
2016-07-03T10:05:34.003Z,3615
2016-07-03T10:06:34.005Z,3600
2016-07-03T10:07:33.992Z,3715
2016-07-03T10:08:33.975Z,1515
2016-07-03T10:09:33.985Z,1180
2016-07-03T10:10:33.969Z,1110
2016-07-03T10:11:33.964Z,1395
2016-07-03T10:12:33.951Z,1960
2016-07-03T10:13:33.955Z,1895
2016-07-03T10:14:33.940Z,1430
2016-07-03T10:15:33.988Z,1650
2016-07-03T10:16:33.911Z,1780
2016-07-03T10:17:34.516Z,1720
2016-07-03T10:18:33.922Z,1445
2016-07-03T10:19:33.894Z,1355
2016-07-03T10:20:33.881Z,1260
2016-07-03T10:21:33.864Z,1175
2016-07-03T10:22:33.850Z,1090
2016-07-03T10:23:33.853Z,995
2016-07-03T10:24:33.838Z,885
2016-07-03T10:25:33.833Z,755
2016-07-03T10:26:33.827Z,635
2016-07-03T10:27:33.812Z,565
2016-07-03T10:28:33.818Z,535
2016-07-03T10:29:33.782Z,530
2016-07-03T10:30:33.788Z,550
2016-07-03T10:31:33.768Z,600
2016-07-03T10:32:33.761Z,650
2016-07-03T10:33:33.749Z,710
2016-07-03T10:34:33.741Z,785
2016-07-03T10:35:33.715Z,880
2016-07-03T10:36:33.694Z,1010
2016-07-03T10:37:33.700Z,1175
2016-07-03T10:38:33.675Z,1390
2016-07-03T10:39:33.655Z,1385
2016-07-03T10:40:33.645Z,1395
2016-07-03T10:41:33.633Z,1385
2016-07-03T10:42:33.622Z,1405
2016-07-03T10:43:33.604Z,1435
2016-07-03T10:44:33.590Z,1470
2016-07-03T10:45:33.575Z,1455
2016-07-03T10:46:33.558Z,1410
2016-07-03T10:47:33.541Z,1270
2016-07-03T10:48:33.528Z,1145
2016-07-03T10:49:33.517Z,990
2016-07-03T10:50:33.507Z,850
2016-07-03T10:51:33.477Z,800
2016-07-03T10:52:33.466Z,910
2016-07-03T10:53:33.453Z,1065
2016-07-03T10:54:33.439Z,1160
2016-07-03T10:55:33.429Z,1255
2016-07-03T10:56:33.415Z,1390
2016-07-03T10:57:33.404Z,1585
2016-07-03T10:58:33.388Z,1740
2016-07-03T10:59:33.371Z,1865
2016-07-03T11:00:33.952Z,2045
2016-07-03T11:01:33.338Z,1975
2016-07-03T11:02:33.310Z,1975
2016-07-03T11:03:33.296Z,2070
2016-07-03T11:04:33.296Z,2050
2016-07-03T11:05:33.283Z,1925
2016-07-03T11:06:33.271Z,2110
2016-07-03T11:07:33.243Z,2045
2016-07-03T11:08:33.246Z,1920
2016-07-03T11:09:33.225Z,1870
2016-07-03T11:10:33.223Z,1880
2016-07-03T11:11:33.203Z,1730
2016-07-03T11:12:33.180Z,1635
2016-07-03T11:13:33.179Z,1805
2016-07-03T11:14:33.160Z,3520
2016-07-03T11:15:33.153Z,3525
2016-07-03T11:16:33.145Z,3555
2016-07-03T11:17:33.142Z,3570
2016-07-03T11:18:33.120Z,3610
2016-07-03T11:19:33.120Z,3605
2016-07-03T11:20:33.109Z,3595
2016-07-03T11:21:33.110Z,3595
2016-07-03T11:22:33.093Z,3565
2016-07-03T11:23:33.088Z,3480
2016-07-03T11:24:33.080Z,3430
2016-07-03T11:25:33.072Z,3525
2016-07-03T11:26:33.073Z,3540
2016-07-03T11:27:33.068Z,3480
2016-07-03T11:28:33.049Z,3510
2016-07-03T11:29:33.068Z,3710
2016-07-03T11:30:33.059Z,3415
2016-07-03T11:31:33.037Z,3535
2016-07-03T11:32:33.044Z,3355
2016-07-03T11:33:33.053Z,2870
2016-07-03T11:34:33.029Z,3465
2016-07-03T11:35:33.032Z,3255
2016-07-03T11:36:33.040Z,2670
2016-07-03T11:37:33.039Z,1940
2016-07-03T11:38:33.033Z,1620
2016-07-03T11:39:33.035Z,1465
2016-07-03T11:40:33.024Z,1590
2016-07-03T11:41:33.029Z,1505
2016-07-03T11:42:33.020Z,1510
2016-07-03T11:43:33.017Z,1310
2016-07-03T11:44:33.012Z,1270
2016-07-03T11:45:33.018Z,1315
2016-07-03T11:46:32.995Z,1390
2016-07-03T11:47:32.995Z,1360
2016-07-03T11:48:33.324Z,1445
2016-07-03T11:49:33.587Z,1315
2016-07-03T11:50:33.008Z,1225
2016-07-03T11:51:32.974Z,1190
2016-07-03T11:52:32.959Z,1065
2016-07-03T11:53:32.951Z,885
2016-07-03T11:54:32.947Z,1000
2016-07-03T11:55:32.935Z,840
2016-07-03T11:56:32.927Z,775
2016-07-03T11:57:32.915Z,660
2016-07-03T11:58:32.899Z,555
2016-07-03T11:59:32.890Z,460
2016-07-03T12:00:32.883Z,355
2016-07-03T12:01:33.472Z,260
2016-07-03T12:02:32.870Z,185
2016-07-03T12:03:32.850Z,150
2016-07-03T12:04:32.842Z,130
2016-07-03T12:05:32.825Z,130
2016-07-03T12:06:32.818Z,145
2016-07-03T12:07:32.789Z,175
2016-07-03T12:08:32.801Z,200
2016-07-03T12:09:32.769Z,240
2016-07-03T12:10:32.762Z,295
2016-07-03T12:11:32.741Z,370
2016-07-03T12:12:32.725Z,420
2016-07-03T12:13:32.714Z,435
2016-07-03T12:14:32.704Z,440
2016-07-03T12:15:32.679Z,435
2016-07-03T12:16:32.670Z,420
2016-07-03T12:17:32.641Z,405
2016-07-03T12:18:32.623Z,395
2016-07-03T12:19:32.607Z,390
2016-07-03T12:20:32.599Z,385
2016-07-03T12:21:33.172Z,385
2016-07-03T12:22:32.563Z,390
2016-07-03T12:23:32.538Z,400
2016-07-03T12:24:32.523Z,415
2016-07-03T12:25:32.502Z,435
2016-07-03T12:26:32.490Z,460
2016-07-03T12:27:32.461Z,480
2016-07-03T12:28:32.456Z,500
2016-07-03T12:29:32.428Z,525
2016-07-03T12:30:32.421Z,565
2016-07-03T12:31:32.385Z,615
2016-07-03T12:32:32.372Z,640
2016-07-03T12:33:32.352Z,685
2016-07-03T12:34:32.333Z,765
2016-07-03T12:35:32.314Z,965
2016-07-03T12:36:32.295Z,1200
2016-07-03T12:37:32.271Z,1390
2016-07-03T12:38:32.252Z,1390
2016-07-03T12:39:32.235Z,1505
2016-07-03T12:40:32.212Z,1755
2016-07-03T12:41:32.188Z,945
2016-07-03T12:42:32.175Z,770
2016-07-03T12:43:32.157Z,685
2016-07-03T12:44:32.135Z,665
2016-07-03T12:45:32.122Z,650
2016-07-03T12:46:32.115Z,625
2016-07-03T12:47:32.084Z,565
2016-07-03T12:48:32.059Z,530
2016-07-03T12:49:32.050Z,490
2016-07-03T12:50:32.039Z,430
2016-07-03T12:51:32.608Z,335
2016-07-03T12:52:31.992Z,235
2016-07-03T12:53:31.971Z,165
2016-07-03T12:54:31.955Z,145
2016-07-03T12:55:31.935Z,155
2016-07-03T12:56:31.913Z,175
2016-07-03T12:57:31.893Z,185
2016-07-03T12:58:31.870Z,185
2016-07-03T12:59:31.856Z,195
2016-07-03T13:00:32.440Z,190
2016-07-03T13:01:31.816Z,195
2016-07-03T13:02:31.795Z,205
2016-07-03T13:03:31.774Z,235
2016-07-03T13:04:31.757Z,275
2016-07-03T13:05:31.796Z,330
2016-07-03T13:06:31.706Z,380
2016-07-03T13:07:31.688Z,440
2016-07-03T13:08:31.671Z,535
2016-07-03T13:09:31.659Z,670
2016-07-03T13:10:31.632Z,965
2016-07-03T13:11:31.613Z,1445
2016-07-03T13:12:31.595Z,2050
2016-07-03T13:13:31.561Z,2730
2016-07-03T13:14:31.548Z,3755
2016-07-03T13:15:31.530Z,4190
2016-07-03T13:16:31.519Z,4585
2016-07-03T13:17:31.487Z,4475
2016-07-03T13:18:31.482Z,4190
2016-07-03T13:19:31.454Z,4215
2016-07-03T13:20:31.453Z,4030
2016-07-03T13:21:31.426Z,3985
2016-07-03T13:22:32.033Z,4015
2016-07-03T13:23:31.400Z,4095
2016-07-03T13:24:31.390Z,4220
2016-07-03T13:25:31.375Z,3995
2016-07-03T13:26:31.372Z,4120
2016-07-03T13:27:31.354Z,4290
2016-07-03T13:28:31.346Z,3800
2016-07-03T13:29:31.330Z,4490
2016-07-03T13:30:31.326Z,4280
2016-07-03T13:31:31.316Z,4095
2016-07-03T13:32:31.907Z,4480
2016-07-03T13:33:31.294Z,4175
2016-07-03T13:34:31.288Z,4530
2016-07-03T13:35:31.274Z,5165
2016-07-03T13:36:31.268Z,1460
2016-07-03T13:37:31.260Z,1625
2016-07-03T13:38:31.252Z,1555
2016-07-03T13:39:31.244Z,1205
2016-07-03T13:40:31.245Z,1840
2016-07-03T13:41:31.215Z,3315
2016-07-03T13:42:31.226Z,3340
2016-07-03T13:43:31.211Z,3815
2016-07-03T13:44:31.197Z,3490
2016-07-03T13:45:31.201Z,2755
2016-07-03T13:46:31.186Z,1795
2016-07-03T13:47:31.174Z,1390
2016-07-03T13:48:31.171Z,1260
2016-07-03T13:49:31.164Z,2500
2016-07-03T13:50:31.156Z,2970
2016-07-03T13:51:31.150Z,2835